Terminal Aerodrome Forecast
Issued by NWS Central Illinois

Home | Current Version | Previous Version | Text Only | Print | Product List | Glossary On
Versions: 1 2 3 4 5 6 7 8 9 10 11 12 13 14 15 16 17 18 19 20
515
FTUS43 KILX 101740
TAFSPI
TAF
KSPI 101740Z 1018/1118 28010KT P6SM SCT050 OVC250
     FM101900 28008KT P6SM OVC050
     FM102300 VRB05KT P6SM VCSH OVC035
     FM110600 VRB05KT P6SM OVC050
     FM111400 34005KT P6SM SCT060=

USA.gov is the U.S. government's official web portal to all federal, state and local government web resources and services.